Time;durP1;ratioP1;P1;durP2;ratioP2;P2;SDS_P1;SDS_P2;PMS_P1;PMS_P2;Temp;Humidity;BMP_temperature;BMP_pressure;BME280_temperature;BME280_humidity;BME280_pressure;Samples;Min_cycle;Max_cycle;Signal;HPM_P1;HPM_P2
2023/06/17 00:00:53;;;;;;;3.63;1.10;;;18.00;99.90;;;18.24;76.61;94296.56;5037884;28;20912;-56
2023/06/17 00:03:20;;;;;;;0.90;0.73;;;18.00;99.90;;;18.24;76.73;94293.09;5032942;28;20456;-58
2023/06/17 00:05:48;;;;;;;1.67;0.80;;;18.00;99.90;;;18.22;76.79;94295.97;5035040;28;20533;-56
2023/06/17 00:08:15;;;;;;;1.60;1.07;;;18.00;99.90;;;18.20;76.51;94299.84;5034196;28;20457;-55
2023/06/17 00:10:44;;;;;;;2.13;0.90;;;17.90;99.90;;;18.18;76.92;94297.38;5037915;28;20910;-58
2023/06/17 00:13:12;;;;;;;1.20;1.10;;;17.90;99.90;;;18.18;76.56;94299.22;5030650;28;20506;-59
2023/06/17 00:15:42;;;;;;;3.40;1.33;;;17.90;99.90;;;18.17;76.67;94297.59;5034511;28;20468;-58
2023/06/17 00:18:09;;;;;;;1.73;1.50;;;17.90;99.90;;;18.16;76.90;94291.44;5033032;28;20532;-56
2023/06/17 00:20:37;;;;;;;3.27;1.10;;;17.90;99.90;;;18.15;76.71;94295.13;5036516;28;20461;-59
2023/06/17 00:23:04;;;;;;;1.20;1.10;;;17.90;99.90;;;18.15;77.02;94289.81;5038562;28;20487;-58
2023/06/17 00:25:31;;;;;;;1.83;1.53;;;17.90;99.90;;;18.13;76.93;94281.19;5037643;28;20468;-54
2023/06/17 00:28:00;;;;;;;1.60;1.50;;;17.90;99.90;;;18.10;76.72;94268.31;5038077;28;20455;-59
2023/06/17 00:30:27;;;;;;;4.03;1.40;;;17.90;99.90;;;18.10;76.89;94276.28;5037382;28;20545;-58
2023/06/17 00:32:54;;;;;;;2.23;1.60;;;17.80;99.90;;;18.07;76.56;94276.69;5039829;28;20454;-60
2023/06/17 00:35:22;;;;;;;1.43;1.30;;;17.80;99.90;;;18.06;76.68;94281.19;5038494;28;20832;-55
2023/06/17 00:37:49;;;;;;;1.60;1.50;;;17.80;99.90;;;18.04;77.01;94274.41;5040882;28;20446;-59
2023/06/17 00:40:17;;;;;;;9.10;1.53;;;17.80;99.90;;;18.03;76.76;94281.59;5038164;28;20474;-56
2023/06/17 00:42:45;;;;;;;1.23;1.13;;;17.80;99.90;;;18.02;76.64;94287.13;5039784;28;20451;-55
2023/06/17 00:45:13;;;;;;;3.30;1.60;;;17.80;99.90;;;18.01;77.06;94283.63;5037103;28;20481;-56
2023/06/17 00:47:41;;;;;;;2.20;1.50;;;17.70;99.90;;;18.00;77.33;94281.16;5034945;28;20445;-58
2023/06/17 00:50:12;;;;;;;2.00;1.90;;;17.70;99.90;;;17.98;77.46;94276.03;5038355;28;21003;-56
2023/06/17 00:52:40;;;;;;;9.63;1.60;;;17.70;99.90;;;17.97;77.62;94279.75;5037586;28;20888;-57
2023/06/17 00:55:09;;;;;;;2.53;1.30;;;17.70;99.90;;;17.96;77.70;94270.09;5037531;28;20467;-59
2023/06/17 00:57:37;;;;;;;7.83;1.90;;;17.70;99.90;;;17.96;77.20;94274.63;5037880;28;20481;-58
2023/06/17 01:00:10;;;;;;;1.40;1.30;;;17.70;99.90;;;17.96;77.54;94279.94;5038958;28;20468;-55
2023/06/17 01:02:40;;;;;;;1.40;1.30;;;17.70;99.90;;;17.94;77.07;94269.50;5037792;28;20825;-59
2023/06/17 01:05:11;;;;;;;1.50;1.40;;;17.70;99.90;;;17.94;77.09;94266.84;5038828;28;20999;-58
2023/06/17 01:07:52;;;;;;;1.83;1.73;;;17.70;99.90;;;17.94;77.09;94258.00;5036001;28;20429;-55
2023/06/17 01:10:22;;;;;;;2.17;2.00;;;17.60;99.90;;;17.94;77.44;94266.00;5031205;28;20502;-57
2023/06/17 01:12:50;;;;;;;1.63;1.53;;;17.70;99.90;;;17.90;77.16;94260.25;5028952;28;20984;-55
2023/06/17 01:15:17;;;;;;;2.10;2.00;;;17.60;99.90;;;17.89;77.24;94267.44;5028215;28;20534;-56
2023/06/17 01:17:46;;;;;;;1.90;1.80;;;17.60;99.90;;;17.88;77.19;94263.13;5035496;28;20541;-55
2023/06/17 01:20:15;;;;;;;1.60;1.50;;;17.60;99.90;;;17.87;77.55;94258.78;5032610;28;20467;-55
2023/06/17 01:22:42;;;;;;;2.93;1.40;;;17.60;99.90;;;17.85;77.27;94263.50;5033078;28;20686;-54
2023/06/17 01:25:13;;;;;;;2.00;1.90;;;17.60;99.90;;;17.84;77.66;94261.84;5034720;28;20486;-57
2023/06/17 01:27:41;;;;;;;2.07;1.97;;;17.60;99.90;;;17.83;77.55;94257.56;5031706;28;20502;-58
2023/06/17 01:30:10;;;;;;;7.93;1.67;;;17.60;99.90;;;17.84;77.58;94255.72;5032245;28;20526;-55
2023/06/17 01:32:38;;;;;;;1.67;1.57;;;17.60;99.90;;;17.84;77.93;94266.34;5032670;28;20448;-57
2023/06/17 01:35:08;;;;;;;1.70;1.60;;;17.60;99.90;;;17.83;77.56;94259.38;5036627;28;20480;-58
2023/06/17 01:37:42;;;;;;;3.00;1.60;;;17.60;99.90;;;17.82;78.13;94263.06;5032977;28;20506;-57
2023/06/17 01:40:13;;;;;;;3.03;2.13;;;17.60;99.90;;;17.82;78.02;94261.22;5034271;28;20483;-56
2023/06/17 01:42:45;;;;;;;1.70;1.60;;;17.60;99.90;;;17.82;77.73;94255.09;5030483;28;20575;-56
2023/06/17 01:45:12;;;;;;;2.93;1.77;;;17.60;99.90;;;17.83;78.42;94260.22;5035228;28;20530;-56
2023/06/17 01:47:40;;;;;;;2.23;2.03;;;17.60;99.90;;;17.82;78.32;94258.56;5033187;28;20463;-54
2023/06/17 01:50:08;;;;;;;1.37;1.27;;;17.60;99.90;;;17.80;77.99;94249.97;5033068;28;20488;-57
2023/06/17 01:52:35;;;;;;;1.77;1.40;;;17.60;99.90;;;17.80;77.63;94255.28;5036134;28;20460;-54
2023/06/17 01:55:02;;;;;;;4.13;1.00;;;17.50;99.90;;;17.79;78.22;94251.00;5034163;28;20481;-57
2023/06/17 01:57:31;;;;;;;1.57;1.10;;;17.60;99.90;;;17.78;78.44;94257.31;5032455;28;21027;-57
2023/06/17 01:59:58;;;;;;;2.23;1.23;;;17.50;99.90;;;17.75;77.97;94252.41;5030799;28;20469;-55
2023/06/17 02:02:26;;;;;;;1.20;1.10;;;17.50;99.90;;;17.74;78.00;94246.25;5035751;28;20559;-54
2023/06/17 02:04:53;;;;;;;4.10;1.07;;;17.50;99.90;;;17.74;78.44;94250.78;5032713;28;20538;-58
2023/06/17 02:07:25;;;;;;;3.27;1.07;;;17.40;99.90;;;17.73;78.69;94246.47;5033983;28;20506;-59
2023/06/17 02:09:52;;;;;;;1.40;1.30;;;17.50;99.90;;;17.71;78.95;94251.16;5030134;28;20492;-54
2023/06/17 02:12:19;;;;;;;4.50;1.13;;;17.50;99.90;;;17.71;78.86;94251.97;5027859;28;20958;-56
2023/06/17 02:14:48;;;;;;;0.90;0.80;;;17.50;99.90;;;17.71;78.82;94248.50;5029689;28;20880;-57
2023/06/17 02:17:15;;;;;;;1.57;1.00;;;17.50;99.90;;;17.69;78.61;94248.72;5035314;28;20472;-53
2023/06/17 02:19:42;;;;;;;1.87;1.67;;;17.50;99.90;;;17.70;78.53;94252.19;5029347;28;20943;-57
2023/06/17 02:22:10;;;;;;;1.50;1.30;;;17.40;99.90;;;17.70;78.29;94254.84;5034649;28;20852;-59
2023/06/17 02:24:37;;;;;;;1.43;1.33;;;17.50;99.90;;;17.69;79.18;94258.50;5033106;28;20530;-56
2023/06/17 02:27:05;;;;;;;1.40;1.30;;;17.50;99.90;;;17.70;78.66;94260.97;5035344;28;20834;-56
2023/06/17 02:29:32;;;;;;;2.20;1.33;;;17.40;99.90;;;17.69;79.17;94258.50;5029491;28;20480;-57
2023/06/17 02:32:01;;;;;;;1.20;1.10;;;17.40;99.90;;;17.69;78.57;94258.50;5033471;28;20573;-55
2023/06/17 02:34:28;;;;;;;1.23;1.13;;;17.40;99.90;;;17.69;78.63;94270.00;5032358;28;20969;-59
2023/06/17 02:36:56;;;;;;;1.20;1.10;;;17.40;99.90;;;17.68;79.29;94257.69;5032720;28;20801;-57
2023/06/17 02:39:24;;;;;;;1.10;1.00;;;17.40;99.90;;;17.67;78.86;94264.03;5033584;28;20476;-55
2023/06/17 02:41:51;;;;;;;15.33;1.27;;;17.40;99.90;;;17.65;79.31;94257.28;5030713;28;20468;-58
2023/06/17 02:44:18;;;;;;;1.47;1.37;;;17.40;99.90;;;17.64;78.56;94260.94;5030277;28;20588;-53
2023/06/17 02:46:45;;;;;;;1.63;1.03;;;17.40;99.90;;;17.64;79.33;94271.59;5030928;28;20833;-57
2023/06/17 02:49:14;;;;;;;1.20;1.10;;;17.40;99.90;;;17.61;79.51;94267.47;5031006;28;20471;-56
2023/06/17 02:51:41;;;;;;;1.10;1.00;;;17.40;99.90;;;17.58;79.36;94267.06;5028172;28;20493;-54
2023/06/17 02:54:10;;;;;;;1.20;1.10;;;17.30;99.90;;;17.55;79.26;94269.09;5031177;28;20465;-56
2023/06/17 02:56:38;;;;;;;1.07;0.97;;;17.30;99.90;;;17.54;79.12;94270.13;5029703;28;20464;-58
2023/06/17 02:59:08;;;;;;;5.87;1.53;;;17.30;99.90;;;17.52;79.62;94266.84;5030902;28;20471;-55
2023/06/17 03:01:41;;;;;;;3.43;1.57;;;17.30;99.90;;;17.51;79.24;94273.16;5027503;28;20445;-57
2023/06/17 03:04:09;;;;;;;1.50;1.40;;;17.30;99.90;;;17.51;79.43;94272.38;5031229;28;20471;-56
2023/06/17 03:06:40;;;;;;;1.83;1.43;;;17.20;99.90;;;17.50;79.15;94266.19;5030106;28;20477;-56
2023/06/17 03:09:08;;;;;;;1.67;1.57;;;17.30;99.90;;;17.52;80.16;94273.97;5032581;28;20473;-56
2023/06/17 03:11:36;;;;;;;2.90;1.40;;;17.30;99.90;;;17.53;79.85;94275.63;5031245;28;20575;-56
2023/06/17 03:14:03;;;;;;;2.20;1.53;;;17.30;99.90;;;17.54;79.52;94272.78;5029967;28;20476;-53
2023/06/17 03:16:33;;;;;;;1.70;1.60;;;17.30;99.90;;;17.56;79.64;94276.03;5030625;28;21041;-57
2023/06/17 03:19:00;;;;;;;1.57;1.47;;;17.30;99.90;;;17.56;79.83;94281.38;5030967;28;20927;-58
2023/06/17 03:21:30;;;;;;;3.87;1.20;;;17.30;99.90;;;17.55;79.49;94282.41;5032255;28;20459;-56
2023/06/17 03:23:59;;;;;;;1.50;1.40;;;17.30;99.90;;;17.56;79.55;94283.22;5032941;28;20494;-59
2023/06/17 03:26:27;;;;;;;1.60;1.50;;;17.30;99.90;;;17.56;79.53;94281.38;5032252;28;20452;-58
2023/06/17 03:28:54;;;;;;;1.37;1.23;;;17.30;99.90;;;17.58;79.37;94288.34;5030444;28;20472;-56
2023/06/17 03:31:22;;;;;;;1.47;1.37;;;17.30;99.90;;;17.58;79.25;94288.34;5033574;28;20851;-56
2023/06/17 03:33:52;;;;;;;1.50;1.33;;;17.30;99.90;;;17.56;80.04;94286.69;5031360;28;20460;-57
2023/06/17 03:36:24;;;;;;;2.80;1.23;;;17.30;99.90;;;17.55;79.43;94289.53;5028881;28;20444;-56
2023/06/17 03:38:51;;;;;;;4.20;1.10;;;17.30;99.90;;;17.54;79.50;94293.25;5033142;28;20884;-55
2023/06/17 03:41:20;;;;;;;1.23;0.90;;;17.30;99.90;;;17.53;79.37;94292.41;5030783;28;20530;-58
2023/06/17 03:43:48;;;;;;;2.47;1.30;;;17.30;99.90;;;17.55;79.31;94290.38;5029532;28;21282;-53
2023/06/17 03:46:16;;;;;;;1.07;0.97;;;17.30;99.90;;;17.56;79.50;94301.84;5032253;28;20484;-58
2023/06/17 03:48:43;;;;;;;10.07;1.83;;;17.30;99.90;;;17.56;79.60;94297.31;5028217;28;20464;-57
2023/06/17 03:51:11;;;;;;;10.43;1.50;;;17.30;99.90;;;17.59;80.01;94300.63;5033194;28;20630;-57
2023/06/17 03:53:38;;;;;;;2.63;1.47;;;17.30;99.90;;;17.60;79.61;94299.59;5030735;28;20523;-58
2023/06/17 03:56:06;;;;;;;3.37;1.40;;;17.30;99.90;;;17.62;80.09;94297.56;5034007;28;20518;-58
2023/06/17 03:58:34;;;;;;;3.57;1.23;;;17.40;99.90;;;17.63;79.75;94300.03;5026559;28;20460;-56
2023/06/17 04:01:02;;;;;;;1.40;1.30;;;17.40;99.90;;;17.64;80.00;94299.00;5032625;28;20487;-55
2023/06/17 04:03:29;;;;;;;2.47;1.40;;;17.40;99.90;;;17.64;79.41;94298.19;5030410;28;20453;-58
2023/06/17 04:05:56;;;;;;;3.67;1.13;;;17.40;99.90;;;17.65;79.20;94305.16;5029560;28;20537;-58
2023/06/17 04:08:23;;;;;;;1.00;0.63;;;17.40;99.90;;;17.65;79.13;94311.28;5028576;28;20467;-57
2023/06/17 04:10:51;;;;;;;1.10;0.70;;;17.40;99.90;;;17.64;79.18;94306.97;5032136;28;20492;-58
2023/06/17 04:13:18;;;;;;;1.30;1.00;;;17.40;99.90;;;17.65;79.40;94310.47;5025834;28;20849;-57
2023/06/17 04:15:48;;;;;;;0.83;0.70;;;17.40;99.90;;;17.65;79.71;94315.78;5030870;28;20522;-57
2023/06/17 04:18:15;;;;;;;2.40;0.63;;;17.40;99.90;;;17.64;79.17;94319.47;5030480;28;20467;-57
2023/06/17 04:20:44;;;;;;;0.80;0.50;;;17.40;99.90;;;17.64;79.25;94314.16;5029823;28;20480;-58
2023/06/17 04:23:11;;;;;;;1.63;0.77;;;17.40;99.90;;;17.63;79.24;94316.00;5032388;28;20475;-58
2023/06/17 04:25:38;;;;;;;0.90;0.80;;;17.40;99.90;;;17.64;78.94;94319.47;5033918;28;20471;-58
2023/06/17 04:28:07;;;;;;;1.53;0.73;;;17.40;99.90;;;17.65;79.01;94321.13;5035490;28;20493;-58
2023/06/17 04:30:34;;;;;;;0.90;0.80;;;17.40;99.90;;;17.65;79.64;94316.59;5034018;28;20805;-57
2023/06/17 04:33:03;;;;;;;0.90;0.60;;;17.40;99.90;;;17.67;79.17;94325.19;5037453;28;20979;-57
2023/06/17 04:35:30;;;;;;;1.20;0.70;;;17.40;99.90;;;17.67;79.34;94333.19;5033445;28;20476;-58
2023/06/17 04:37:58;;;;;;;2.03;1.27;;;17.40;99.90;;;17.68;79.12;94334.00;5034829;28;20532;-57
2023/06/17 04:40:26;;;;;;;0.97;0.60;;;17.40;99.90;;;17.68;79.24;94337.50;5042000;28;20478;-58
2023/06/17 04:42:53;;;;;;;0.80;0.40;;;17.40;99.90;;;17.69;79.59;94343.63;5033672;28;20492;-59
2023/06/17 04:45:20;;;;;;;3.47;0.90;;;17.40;99.90;;;17.69;78.97;94349.78;5035165;28;20479;-56
2023/06/17 04:47:48;;;;;;;1.00;0.70;;;17.40;99.90;;;17.68;78.98;94347.31;5033336;28;20924;-57
2023/06/17 04:50:16;;;;;;;2.70;0.80;;;17.40;99.90;;;17.68;79.20;94345.47;5033811;28;20523;-56
2023/06/17 04:52:44;;;;;;;4.73;1.50;;;17.40;99.90;;;17.68;79.10;94349.97;5037001;28;20499;-60
2023/06/17 04:55:14;;;;;;;3.00;1.20;;;17.40;99.90;;;17.68;79.59;94344.66;5035505;28;20527;-55
2023/06/17 04:57:42;;;;;;;1.30;0.67;;;17.40;99.90;;;17.69;78.94;94348.94;5034437;28;20971;-56
2023/06/17 05:00:11;;;;;;;1.00;0.90;;;17.40;99.90;;;17.71;79.68;94346.91;5031299;28;20477;-58
2023/06/17 05:02:38;;;;;;;5.43;1.23;;;17.50;99.90;;;17.73;79.09;94358.19;5030118;28;20460;-55
2023/06/17 05:05:07;;;;;;;3.90;1.07;;;17.50;99.90;;;17.74;78.95;94350.00;5031212;28;20472;-54
2023/06/17 05:07:35;;;;;;;1.10;0.97;;;17.50;99.90;;;17.76;79.57;94352.47;5035706;28;20952;-57
2023/06/17 05:10:03;;;;;;;4.10;2.20;;;17.50;99.90;;;17.77;79.56;94354.13;5037026;28;20522;-57
2023/06/17 05:12:30;;;;;;;1.47;1.37;;;17.50;99.90;;;17.79;79.18;94356.59;5032754;28;20520;-59
2023/06/17 05:14:57;;;;;;;2.10;1.20;;;17.50;99.90;;;17.80;79.31;94359.03;5034623;28;20523;-58
2023/06/17 05:17:24;;;;;;;3.63;1.20;;;17.50;99.90;;;17.80;79.12;94359.03;5036554;28;21011;-58
2023/06/17 05:19:52;;;;;;;1.67;0.90;;;17.50;99.90;;;17.82;78.90;94357.00;5030010;28;20479;-58
2023/06/17 05:22:19;;;;;;;5.07;1.50;;;17.50;99.90;;;17.82;79.62;94351.69;5030296;28;21068;-57
2023/06/17 05:24:47;;;;;;;5.47;1.10;;;17.60;99.90;;;17.82;78.83;94357.00;5033631;28;20473;-54
2023/06/17 05:27:15;;;;;;;5.43;0.90;;;17.60;99.90;;;17.83;78.91;94363.13;5037137;28;20506;-58
2023/06/17 05:29:42;;;;;;;1.97;0.80;;;17.60;99.90;;;17.83;79.00;94357.81;5031268;28;20908;-59
2023/06/17 05:32:09;;;;;;;1.20;1.10;;;17.60;99.90;;;17.83;78.92;94361.31;5032047;28;20554;-56
2023/06/17 05:34:36;;;;;;;1.60;1.50;;;17.60;99.90;;;17.86;79.10;94365.41;5033465;28;20457;-59
2023/06/17 05:37:04;;;;;;;1.07;0.63;;;17.60;99.90;;;17.86;79.00;94358.25;5036960;28;20522;-59
2023/06/17 05:39:31;;;;;;;6.30;1.23;;;17.60;99.90;;;17.89;79.69;94365.88;5035123;28;20483;-55
2023/06/17 05:42:00;;;;;;;4.10;1.37;;;17.60;99.90;;;17.92;79.22;94370.81;5029557;28;20464;-55
2023/06/17 05:44:27;;;;;;;0.93;0.80;;;17.60;99.90;;;17.97;78.75;94366.72;5033801;28;20480;-54
2023/06/17 05:46:54;;;;;;;1.40;1.00;;;17.70;99.90;;;17.99;78.94;94370.00;5030496;28;20519;-56
2023/06/17 05:49:22;;;;;;;9.83;1.17;;;17.70;99.90;;;18.00;78.70;94364.50;5036268;28;20476;-58
2023/06/17 05:51:49;;;;;;;1.40;0.90;;;17.70;99.90;;;18.02;78.61;94372.28;5033404;28;20873;-60
2023/06/17 05:54:16;;;;;;;5.00;0.87;;;17.70;99.90;;;18.02;78.44;94367.75;5034945;28;20501;-59
2023/06/17 05:56:43;;;;;;;1.50;1.03;;;17.70;99.90;;;18.05;79.05;94369.22;5030753;28;21024;-58
2023/06/17 05:59:12;;;;;;;7.33;1.00;;;17.80;99.90;;;18.08;78.35;94364.31;5032491;28;20472;-58
2023/06/17 06:01:39;;;;;;;5.37;1.13;;;17.80;99.90;;;18.13;78.82;94366.38;5033071;28;20587;-59
2023/06/17 06:04:06;;;;;;;7.70;0.80;;;17.80;99.90;;;18.15;79.13;94359.00;5034429;28;21007;-58
2023/06/17 06:06:34;;;;;;;1.00;0.70;;;17.90;99.90;;;18.22;78.21;94364.38;5027443;28;20456;-54
2023/06/17 06:09:01;;;;;;;1.13;0.87;;;17.90;99.90;;;18.24;78.49;94355.16;5034981;28;20476;-53
2023/06/17 06:11:28;;;;;;;0.93;0.83;;;18.00;99.90;;;18.27;78.57;94352.09;5032341;28;20492;-57
2023/06/17 06:13:55;;;;;;;2.30;0.90;;;18.00;99.90;;;18.29;78.17;94351.88;5029863;28;20476;-55
2023/06/17 06:16:24;;;;;;;2.43;0.70;;;18.00;99.90;;;18.28;78.45;94347.59;5029838;28;20456;-55
2023/06/17 06:18:51;;;;;;;7.77;0.83;;;18.00;99.90;;;18.27;78.25;94346.75;5034098;28;20467;-55
2023/06/17 06:21:18;;;;;;;1.30;0.90;;;18.00;99.90;;;18.26;78.40;94350.47;5031985;28;20457;-57
2023/06/17 06:23:46;;;;;;;2.93;0.67;;;18.00;99.90;;;18.24;77.86;94357.00;5029235;28;20459;-54
2023/06/17 06:26:13;;;;;;;0.90;0.73;;;18.00;99.90;;;18.23;77.99;94364.16;5029746;28;20460;-57
2023/06/17 06:28:40;;;;;;;2.93;0.87;;;18.00;99.90;;;18.24;77.94;94363.13;5029957;28;20457;-55
2023/06/17 06:31:07;;;;;;;7.50;1.20;;;18.00;99.90;;;18.25;78.57;94370.09;5032439;28;20461;-60
2023/06/17 06:33:37;;;;;;;7.20;1.50;;;18.00;99.90;;;18.27;78.30;94372.56;5030521;28;20461;-54
2023/06/17 06:36:05;;;;;;;1.10;0.93;;;18.00;99.90;;;18.27;78.25;94368.06;5032002;28;20502;-59
2023/06/17 06:38:32;;;;;;;2.00;0.90;;;18.00;99.90;;;18.27;78.76;94368.06;5042715;28;20444;-58
2023/06/17 06:40:59;;;;;;;1.93;0.80;;;18.00;99.90;;;18.27;78.06;94376.03;5029479;28;20457;-59
2023/06/17 06:43:27;;;;;;;2.90;0.70;;;18.00;99.90;;;18.28;78.20;94374.22;5027242;28;20460;-58
2023/06/17 06:45:54;;;;;;;1.10;0.87;;;18.00;99.90;;;18.29;78.04;94378.50;5030319;28;20580;-55
2023/06/17 06:48:21;;;;;;;1.60;1.07;;;18.00;99.90;;;18.32;78.50;94366.66;5030692;28;20458;-58
2023/06/17 06:50:50;;;;;;;1.00;0.80;;;18.00;99.90;;;18.35;78.42;94374.22;5037879;28;20524;-56
2023/06/17 06:53:19;;;;;;;0.90;0.80;;;18.10;99.90;;;18.36;78.42;94371.38;5031175;28;20949;-61
2023/06/17 06:55:46;;;;;;;1.20;1.10;;;18.10;99.90;;;18.39;78.69;94372.81;5036396;28;20547;-60
2023/06/17 06:58:13;;;;;;;1.60;1.50;;;18.10;99.90;;;18.41;78.31;94376.09;5028348;28;20453;-60
2023/06/17 07:00:40;;;;;;;2.23;1.10;;;18.10;99.90;;;18.44;78.65;94375.69;5032829;28;20522;-59
2023/06/17 07:03:08;;;;;;;3.10;0.70;;;18.20;99.90;;;18.48;78.22;94379.56;5029990;28;20471;-54
2023/06/17 07:05:35;;;;;;;1.40;1.00;;;18.20;99.90;;;18.51;78.06;94363.19;5034609;28;20476;-60
2023/06/17 07:08:04;;;;;;;1.00;0.90;;;18.30;99.90;;;18.59;78.52;94371.03;5031910;28;20455;-56
2023/06/17 07:10:31;;;;;;;2.23;1.00;;;18.30;99.90;;;18.69;78.10;94369.81;5033913;28;20519;-59
2023/06/17 07:12:58;;;;;;;2.40;1.10;;;18.40;99.90;;;18.79;78.41;94364.88;5034192;28;20487;-56
2023/06/17 07:15:25;;;;;;;1.30;1.00;;;18.50;99.90;;;18.89;77.95;94370.69;5036591;28;20461;-61
2023/06/17 07:17:53;;;;;;;5.53;1.50;;;18.60;99.90;;;18.98;77.45;94369.47;5030801;28;20461;-59
2023/06/17 07:20:20;;;;;;;1.03;0.93;;;18.70;99.90;;;19.07;77.93;94369.25;5034452;28;20471;-60
2023/06/17 07:22:47;;;;;;;1.43;1.33;;;18.70;99.90;;;19.15;77.38;94374.41;5033945;28;20444;-54
2023/06/17 07:25:16;;;;;;;1.00;0.90;;;18.80;99.90;;;19.22;77.03;94372.53;5036109;28;20495;-59
2023/06/17 07:27:43;;;;;;;1.30;1.20;;;18.90;99.90;;;19.29;76.97;94370.69;5036540;28;20453;-56
2023/06/17 07:30:12;;;;;;;1.10;1.00;;;19.00;99.90;;;19.34;76.44;94368.22;5033740;28;20537;-55
2023/06/17 07:32:39;;;;;;;2.60;0.80;;;19.00;99.90;;;19.40;76.71;94373.78;5034039;28;20549;-53
2023/06/17 07:35:08;;;;;;;1.37;0.80;;;19.10;99.90;;;19.46;76.47;94376.44;5033766;28;20475;-62
2023/06/17 07:37:35;;;;;;;0.93;0.83;;;19.10;99.90;;;19.51;76.11;94384.63;5031717;28;20469;-53
2023/06/17 07:40:04;;;;;;;3.57;2.30;;;19.20;99.90;;;19.57;75.88;94380.31;5031830;28;20579;-60
2023/06/17 07:42:34;;;;;;;24.87;16.87;;;19.30;99.90;;;19.62;75.83;94375.16;5031275;28;20463;-55
2023/06/17 07:45:01;;;;;;;7.00;4.97;;;19.30;99.90;;;19.68;75.62;94384.19;5037224;28;20494;-55
2023/06/17 07:47:28;;;;;;;9.27;3.50;;;19.40;99.90;;;19.75;75.65;94379.66;5033778;28;20559;-61
2023/06/17 07:49:55;;;;;;;3.97;3.57;;;19.40;99.90;;;19.81;75.17;94380.69;5035337;28;20993;-53
2023/06/17 07:52:23;;;;;;;4.00;3.70;;;19.50;99.90;;;19.85;75.04;94389.94;5033391;28;20489;-54
2023/06/17 07:54:51;;;;;;;4.10;3.23;;;19.50;99.90;;;19.90;74.90;94394.66;5033173;28;20468;-59
2023/06/17 07:57:18;;;;;;;2.00;1.90;;;19.50;99.90;;;19.93;75.03;94388.88;5036001;28;20464;-57
2023/06/17 07:59:47;;;;;;;49.93;29.33;;;19.60;99.90;;;19.96;74.99;94396.47;5034239;28;21086;-60
2023/06/17 08:02:14;;;;;;;21.33;10.20;;;19.60;99.90;;;19.97;75.00;94393.59;5034074;28;20493;-57
2023/06/17 08:04:41;;;;;;;43.27;29.23;;;19.70;99.90;;;19.98;74.86;94395.22;5037183;28;20485;-59
2023/06/17 08:07:08;;;;;;;6.47;3.80;;;19.70;99.90;;;19.99;74.91;94388.06;5030017;28;20460;-56
2023/06/17 08:09:36;;;;;;;2.10;1.90;;;19.70;99.90;;;20.00;74.98;94393.19;5033388;28;20487;-59
2023/06/17 08:12:03;;;;;;;3.60;3.30;;;19.70;99.90;;;20.01;74.65;94392.13;5032380;28;20487;-55
2023/06/17 08:14:30;;;;;;;2.30;2.20;;;19.70;99.90;;;20.01;74.62;94394.00;5032512;28;20468;-60
2023/06/17 08:16:59;;;;;;;2.83;2.63;;;19.70;99.90;;;20.00;74.67;94403.84;5037453;28;20975;-60
2023/06/17 08:19:26;;;;;;;4.00;3.13;;;19.70;99.90;;;19.97;74.40;94408.78;5036888;28;20472;-54
2023/06/17 08:21:53;;;;;;;4.30;3.53;;;19.70;99.90;;;19.94;74.29;94403.84;5033588;28;20449;-62
2023/06/17 08:24:22;;;;;;;3.33;3.03;;;19.70;99.90;;;19.91;74.34;94414.94;5029331;28;20472;-60
2023/06/17 08:26:50;;;;;;;2.83;1.70;;;19.60;99.90;;;19.86;74.29;94407.56;5036456;28;20521;-61
2023/06/17 08:29:19;;;;;;;1.03;0.93;;;19.60;99.90;;;19.84;74.42;94409.63;5035817;28;21000;-56
2023/06/17 08:31:48;;;;;;;2.77;1.07;;;19.60;99.90;;;19.81;74.50;94410.06;5034307;28;20460;-54
2023/06/17 08:34:17;;;;;;;1.73;1.63;;;19.50;99.90;;;19.78;74.98;94410.47;5035970;28;20586;-55
2023/06/17 08:36:45;;;;;;;1.53;1.43;;;19.50;99.90;;;19.76;74.67;94423.19;5032352;28;20546;-54
2023/06/17 08:39:12;;;;;;;2.60;2.50;;;19.50;99.90;;;19.73;74.69;94418.25;5033885;28;20562;-60
2023/06/17 08:41:40;;;;;;;1.50;1.00;;;19.40;99.90;;;19.73;74.83;94415.59;5032492;28;20472;-62
2023/06/17 08:44:09;;;;;;;1.30;1.10;;;19.40;99.90;;;19.74;74.76;94419.91;5036090;28;20487;-60
2023/06/17 08:46:37;;;;;;;2.73;1.10;;;19.40;99.90;;;19.74;75.02;94420.72;5030454;28;20983;-53
2023/06/17 08:49:06;;;;;;;2.80;1.50;;;19.40;99.90;;;19.75;74.98;94416.19;5034592;28;20483;-58
2023/06/17 08:51:35;;;;;;;1.67;1.57;;;19.40;99.90;;;19.77;75.16;94414.16;5037373;28;20531;-57
2023/06/17 08:54:03;;;;;;;5.13;1.70;;;19.50;99.90;;;19.82;75.14;94419.72;5034417;28;20546;-54
2023/06/17 08:56:30;;;;;;;3.83;1.47;;;19.50;99.90;;;19.87;74.67;94419.91;5035562;28;20452;-57
2023/06/17 08:58:58;;;;;;;3.53;1.50;;;19.50;99.90;;;19.92;74.89;94422.75;5037171;28;20480;-61
2023/06/17 09:01:25;;;;;;;1.50;1.00;;;19.60;99.90;;;19.97;74.76;94416.78;5032616;28;20461;-57
2023/06/17 09:03:53;;;;;;;1.30;1.20;;;19.60;99.90;;;19.95;74.59;94395.63;5033320;28;20495;-60
2023/06/17 09:06:23;;;;;;;1.53;1.37;;;19.70;99.90;;;20.04;74.64;94407.72;5030286;28;20455;-56
2023/06/17 09:08:52;;;;;;;2.40;1.30;;;19.70;99.90;;;20.10;74.51;94408.75;5032517;28;20464;-54
2023/06/17 09:11:21;;;;;;;1.93;1.20;;;19.80;99.90;;;20.15;74.64;94411.59;5031515;28;20548;-54
2023/06/17 09:13:51;;;;;;;1.77;1.60;;;19.80;99.90;;;20.22;74.55;94406.25;5035774;28;20495;-54
2023/06/17 09:16:18;;;;;;;1.57;1.10;;;19.90;99.90;;;20.27;74.64;94408.28;5031796;28;20487;-62
2023/06/17 09:18:46;;;;;;;1.73;1.63;;;19.90;99.90;;;20.30;74.42;94411.34;5031203;28;20539;-60
2023/06/17 09:21:17;;;;;;;1.73;1.30;;;20.00;99.90;;;20.35;74.02;94402.69;5037799;28;20455;-56
2023/06/17 09:23:55;;;;;;;1.83;1.73;;;20.00;99.90;;;20.40;74.38;94409.06;5030151;28;20542;-62
2023/06/17 09:26:25;;;;;;;2.80;2.00;;;20.10;99.90;;;20.45;74.21;94399.56;5031799;28;20506;-59
2023/06/17 09:28:52;;;;;;;1.50;1.30;;;20.10;99.90;;;20.49;74.15;94400.78;5032135;28;20465;-57
2023/06/17 09:31:19;;;;;;;1.30;1.20;;;20.20;99.90;;;20.51;73.52;94396.88;5033980;28;20785;-54
2023/06/17 09:33:47;;;;;;;3.00;1.37;;;20.20;99.90;;;20.51;73.59;94404.06;5027329;28;21017;-55
2023/06/17 09:36:14;;;;;;;7.43;2.20;;;20.20;99.90;;;20.50;73.58;94411.28;5029883;28;20464;-56
2023/06/17 09:38:42;;;;;;;6.63;1.70;;;20.20;99.90;;;20.53;73.17;94404.69;5030112;28;20985;-58
2023/06/17 09:41:15;;;;;;;5.10;1.30;;;20.20;99.90;;;20.57;73.45;94397.88;5027207;28;20461;-60
2023/06/17 09:43:42;;;;;;;2.80;1.50;;;20.20;99.90;;;20.65;73.30;94408.38;5030790;28;20529;-55
2023/06/17 09:46:11;;;;;;;12.60;2.70;;;20.30;99.90;;;20.75;73.48;94406.03;5032490;28;20800;-54
2023/06/17 09:48:38;;;;;;;10.33;2.03;;;20.40;99.90;;;20.85;73.10;94410.94;5030937;28;20457;-65
2023/06/17 09:51:09;;;;;;;2.70;2.50;;;20.50;99.90;;;20.96;73.12;94406.75;5031127;28;20451;-62
2023/06/17 09:53:36;;;;;;;1.30;0.90;;;20.60;99.90;;;21.08;72.35;94413.00;5035617;28;20588;-56
2023/06/17 09:56:04;;;;;;;2.70;0.70;;;20.80;99.90;;;21.23;72.03;94412.72;5042429;28;20451;-55
2023/06/17 09:58:34;;;;;;;0.90;0.60;;;20.80;99.90;;;21.37;71.77;94413.44;5028131;28;20457;-62
2023/06/17 10:01:05;;;;;;;1.93;0.77;;;21.00;99.90;;;21.47;71.24;94418.28;5028839;28;20460;-57
2023/06/17 10:03:33;;;;;;;1.20;0.90;;;21.10;99.90;;;21.56;71.09;94417.00;5028741;28;20454;-55
2023/06/17 10:06:04;;;;;;;0.90;0.73;;;21.20;99.90;;;21.60;70.79;94417.41;5031460;28;20469;-57
2023/06/17 10:08:31;;;;;;;1.10;1.00;;;21.30;99.90;;;21.63;70.77;94422.31;5032814;28;20483;-65
2023/06/17 10:11:00;;;;;;;1.23;1.13;;;21.30;99.90;;;21.63;70.53;94420.44;5031432;28;21049;-56
2023/06/17 10:13:27;;;;;;;6.20;1.30;;;21.30;99.90;;;21.63;70.02;94428.47;5029441;28;20497;-56
2023/06/17 10:15:56;;;;;;;1.37;0.93;;;21.30;99.90;;;21.61;70.21;94425.22;5029844;28;20566;-56
2023/06/17 10:18:23;;;;;;;1.13;1.03;;;21.30;99.90;;;21.64;70.26;94427.44;5028930;28;20977;-64
2023/06/17 10:20:50;;;;;;;1.77;0.80;;;21.30;99.90;;;21.65;70.08;94423.72;5029182;28;20460;-61